createdAt,value
2019-04-28T00:00:44.343Z,15.47
2019-04-28T00:03:13.531Z,18.07
2019-04-28T00:05:42.752Z,18.23
2019-04-28T00:08:11.936Z,17.47
2019-04-28T00:10:42.063Z,18.33
2019-04-28T00:13:11.736Z,19.17
2019-04-28T00:15:41.710Z,19.37
2019-04-28T00:18:11.892Z,17.13
2019-04-28T00:21:12.571Z,19.70
2019-04-28T00:24:06.951Z,20.07
2019-04-28T00:26:41.073Z,18.60
2019-04-28T00:29:11.116Z,20.60
2019-04-28T00:31:41.353Z,25.33
2019-04-28T00:34:11.423Z,17.27
2019-04-28T00:36:43.076Z,22.70
2019-04-28T00:39:12.439Z,21.20
2019-04-28T00:41:42.156Z,17.87
2019-04-28T00:44:11.999Z,21.77
2019-04-28T00:46:42.320Z,18.17
2019-04-28T00:49:11.976Z,18.43
2019-04-28T00:51:41.684Z,18.70
2019-04-28T00:54:12.092Z,18.83
2019-04-28T00:56:41.972Z,22.60
2019-04-28T00:59:11.948Z,18.07
2019-04-28T01:01:51.299Z,15.13
2019-04-28T01:04:21.910Z,26.20
2019-04-28T01:06:51.965Z,19.13
2019-04-28T01:09:21.884Z,17.70
2019-04-28T01:11:53.416Z,17.93
2019-04-28T01:14:22.260Z,18.40
2019-04-28T01:16:59.863Z,17.17
2019-04-28T01:19:32.595Z,19.93
2019-04-28T01:22:17.252Z,21.37
2019-04-28T01:24:46.500Z,22.30
2019-04-28T01:27:37.547Z,17.83
2019-04-28T01:30:11.499Z,17.60
2019-04-28T01:32:46.440Z,19.80
2019-04-28T01:35:15.745Z,21.53
2019-04-28T01:37:44.960Z,21.83
2019-04-28T01:40:14.193Z,25.70
2019-04-28T01:42:43.416Z,21.40
2019-04-28T01:45:12.939Z,21.97
2019-04-28T01:47:42.178Z,16.93
2019-04-28T01:50:11.363Z,19.53
2019-04-28T01:52:40.597Z,15.67
2019-04-28T01:55:10.261Z,20.57
2019-04-28T01:57:40.154Z,17.80
2019-04-28T02:00:21.874Z,12.67
2019-04-28T02:02:43.301Z,11.53
2019-04-28T02:05:12.612Z,19.00
2019-04-28T02:07:41.808Z,12.77
2019-04-28T02:10:11.432Z,18.83
2019-04-28T02:12:40.620Z,12.33
2019-04-28T02:15:10.586Z,13.77
2019-04-28T02:17:40.240Z,13.40
2019-04-28T02:20:10.406Z,17.60
2019-04-28T02:22:50.084Z,15.43
2019-04-28T02:25:19.561Z,13.20
2019-04-28T02:27:50.147Z,13.77
2019-04-28T02:30:20.919Z,12.10
2019-04-28T02:32:51.830Z,14.03
2019-04-28T02:35:21.498Z,14.30
2019-04-28T02:37:50.730Z,12.67
2019-04-28T02:40:20.647Z,17.13
2019-04-28T02:42:52.162Z,17.17
2019-04-28T02:45:25.921Z,14.10
2019-04-28T02:48:01.000Z,19.77
2019-04-28T02:50:40.972Z,23.20
2019-04-28T02:53:27.029Z,15.37
2019-04-28T02:55:56.239Z,16.60
2019-04-28T02:58:25.445Z,13.40
2019-04-28T03:01:06.679Z,12.37
2019-04-28T03:03:25.560Z,18.90
2019-04-28T03:05:54.756Z,14.67
2019-04-28T03:08:23.929Z,15.73
2019-04-28T03:10:53.129Z,12.70
2019-04-28T03:13:22.333Z,13.07
2019-04-28T03:15:51.881Z,14.17
2019-04-28T03:18:21.518Z,13.20
2019-04-28T03:20:51.757Z,12.50
2019-04-28T03:23:21.531Z,15.10
2019-04-28T03:26:10.954Z,13.73
2019-04-28T03:28:43.325Z,16.93
2019-04-28T03:31:59.156Z,15.07
2019-04-28T03:33:55.703Z,17.13
2019-04-28T03:36:23.894Z,20.57
2019-04-28T03:38:53.375Z,15.27
2019-04-28T03:41:22.563Z,19.50
2019-04-28T03:43:51.800Z,19.87
2019-04-28T03:46:24.473Z,17.63
2019-04-28T03:48:53.700Z,27.60
2019-04-28T03:51:22.897Z,21.63
2019-04-28T03:53:52.080Z,19.33
2019-04-28T03:56:21.313Z,22.50
2019-04-28T03:58:50.654Z,19.33
2019-04-28T04:01:20.722Z,17.67
2019-04-28T04:03:51.582Z,19.83
2019-04-28T04:06:22.577Z,20.67
2019-04-28T04:08:52.145Z,17.57
2019-04-28T04:11:42.526Z,19.27
2019-04-28T04:14:23.868Z,18.47
2019-04-28T04:17:01.148Z,19.33
2019-04-28T04:19:33.932Z,17.00
2019-04-28T04:22:03.168Z,18.77
2019-04-28T04:24:32.365Z,17.37
2019-04-28T04:27:01.661Z,14.90
2019-04-28T04:29:31.033Z,18.87
2019-04-28T04:32:11.594Z,20.93
2019-04-28T04:34:31.133Z,14.00
2019-04-28T04:37:00.790Z,18.37
2019-04-28T04:39:30.432Z,13.97
2019-04-28T04:42:00.662Z,16.43
2019-04-28T04:44:30.990Z,17.43
2019-04-28T04:47:00.974Z,17.10
2019-04-28T04:49:31.588Z,17.20
2019-04-28T04:52:01.021Z,17.93
2019-04-28T04:54:32.726Z,15.23
2019-04-28T04:57:01.261Z,14.27
2019-04-28T04:59:32.153Z,14.53
2019-04-28T05:02:40.996Z,12.50
2019-04-28T05:05:20.273Z,15.00
2019-04-28T05:07:50.741Z,14.07
2019-04-28T05:10:20.489Z,12.77
2019-04-28T05:12:49.968Z,17.33
2019-04-28T05:15:20.698Z,21.90
2019-04-28T05:17:50.883Z,13.90
2019-04-28T05:20:21.436Z,14.73
2019-04-28T05:22:57.483Z,12.27
2019-04-28T05:25:39.459Z,18.07
2019-04-28T05:28:10.339Z,12.90
2019-04-28T05:30:42.886Z,16.50
2019-04-28T05:33:13.524Z,13.60
2019-04-28T05:35:42.741Z,16.33
2019-04-28T05:38:12.044Z,14.47
2019-04-28T05:40:41.255Z,15.57
2019-04-28T05:43:10.689Z,13.70
2019-04-28T05:45:40.005Z,19.43
2019-04-28T05:48:11.308Z,17.40
2019-04-28T05:50:45.788Z,17.53
2019-04-28T05:53:33.540Z,17.97
2019-04-28T05:56:21.387Z,18.60
2019-04-28T05:58:54.147Z,15.03
2019-04-28T06:01:45.224Z,22.90
2019-04-28T06:04:14.840Z,19.17
2019-04-28T06:06:45.711Z,20.67
2019-04-28T06:09:36.880Z,21.27
2019-04-28T06:12:10.188Z,18.10
2019-04-28T06:14:40.268Z,22.17
2019-04-28T06:17:10.865Z,19.70
2019-04-28T06:19:40.410Z,21.00
2019-04-28T06:22:09.604Z,19.33
2019-04-28T06:24:38.801Z,19.40
2019-04-28T06:27:08.008Z,21.80
2019-04-28T06:29:37.244Z,21.27
2019-04-28T06:32:06.553Z,25.57
2019-04-28T06:34:35.747Z,17.07
2019-04-28T06:37:04.977Z,18.00
2019-04-28T06:39:34.221Z,23.57
2019-04-28T06:42:03.424Z,20.17
2019-04-28T06:44:32.664Z,20.50
2019-04-28T06:47:01.882Z,18.27
2019-04-28T06:49:31.103Z,22.57
2019-04-28T06:52:00.310Z,24.10
2019-04-28T06:54:29.528Z,19.30
2019-04-28T06:56:58.723Z,20.17
2019-04-28T06:59:27.979Z,23.97
2019-04-28T07:01:57.205Z,20.33
2019-04-28T07:04:26.429Z,18.53
2019-04-28T07:06:55.619Z,22.47
2019-04-28T07:09:24.922Z,19.33
2019-04-28T07:11:54.231Z,22.23
2019-04-28T07:14:23.467Z,16.87
2019-04-28T07:16:52.673Z,17.00
2019-04-28T07:19:21.879Z,23.20
2019-04-28T07:22:16.513Z,16.67
2019-04-28T07:24:45.839Z,22.63
2019-04-28T07:27:15.050Z,19.77
2019-04-28T07:29:44.273Z,22.67
2019-04-28T07:32:13.564Z,20.20
2019-04-28T07:34:42.784Z,20.27
2019-04-28T07:37:12.050Z,16.70
2019-04-28T07:39:41.275Z,20.47
2019-04-28T07:42:10.472Z,22.17
2019-04-28T07:44:39.706Z,26.57
2019-04-28T07:47:08.925Z,22.03
2019-04-28T07:49:38.264Z,21.90
2019-04-28T07:52:35.409Z,26.10
2019-04-28T07:55:05.426Z,18.70
2019-04-28T07:57:34.608Z,22.90
2019-04-28T08:00:04.998Z,20.00
2019-04-28T08:02:34.251Z,25.43
2019-04-28T08:05:03.447Z,23.20
2019-04-28T08:07:32.668Z,28.17
2019-04-28T08:10:01.883Z,21.03
2019-04-28T08:12:31.125Z,30.10
2019-04-28T08:15:00.429Z,20.70
2019-04-28T08:17:29.655Z,23.97
2019-04-28T08:19:58.927Z,15.53
2019-04-28T08:22:28.284Z,14.70
2019-04-28T08:24:57.516Z,16.30
2019-04-28T08:27:26.716Z,19.27
2019-04-28T08:29:58.825Z,18.97
2019-04-28T08:32:39.369Z,18.33
2019-04-28T08:35:08.626Z,19.57
2019-04-28T08:37:37.879Z,19.10
2019-04-28T08:40:07.208Z,17.20
2019-04-28T08:42:36.433Z,20.30
2019-04-28T08:45:05.919Z,23.37
2019-04-28T08:47:35.137Z,20.53
2019-04-28T08:50:04.633Z,19.90
2019-04-28T08:52:33.912Z,16.60
2019-04-28T08:55:03.181Z,17.97
2019-04-28T08:57:32.507Z,14.00
2019-04-28T09:00:01.714Z,16.30
2019-04-28T09:02:30.941Z,20.60
2019-04-28T09:05:00.277Z,15.67
2019-04-28T09:07:29.508Z,21.70
2019-04-28T09:09:58.828Z,21.40
2019-04-28T09:12:28.028Z,21.23
2019-04-28T09:14:57.255Z,18.37
2019-04-28T09:17:26.440Z,22.43
2019-04-28T09:19:55.691Z,18.07
2019-04-28T09:22:25.045Z,22.90
2019-04-28T09:24:54.313Z,13.20
2019-04-28T09:27:23.581Z,17.43
2019-04-28T09:29:52.771Z,15.70
2019-04-28T09:32:22.175Z,15.63
2019-04-28T09:34:51.445Z,19.03
2019-04-28T09:37:20.757Z,21.57
2019-04-28T09:39:58.128Z,12.60
2019-04-28T09:42:50.965Z,14.33
2019-04-28T09:45:39.366Z,10.60
2019-04-28T09:48:08.573Z,17.57
2019-04-28T09:50:37.768Z,13.73
2019-04-28T09:53:06.980Z,11.87
2019-04-28T09:55:36.192Z,8.93
2019-04-28T09:58:05.436Z,12.27
2019-04-28T10:00:34.947Z,10.67
2019-04-28T10:03:04.247Z,14.93
2019-04-28T10:05:33.508Z,11.30
2019-04-28T10:08:02.709Z,9.27
2019-04-28T10:10:31.909Z,12.13
2019-04-28T10:13:01.121Z,10.43
2019-04-28T10:15:30.379Z,8.60
2019-04-28T10:17:59.542Z,12.73
2019-04-28T10:20:28.783Z,11.47
2019-04-28T10:22:58.023Z,11.13
2019-04-28T10:25:27.283Z,16.87
2019-04-28T10:27:56.458Z,10.33
2019-04-28T10:30:25.779Z,11.80
2019-04-28T10:32:54.960Z,11.33
2019-04-28T10:35:24.293Z,11.10
2019-04-28T10:37:53.492Z,10.93
2019-04-28T10:40:40.680Z,10.83
2019-04-28T10:43:09.896Z,8.67
2019-04-28T10:45:47.389Z,7.80
2019-04-28T10:48:16.799Z,11.03
2019-04-28T10:50:46.009Z,10.87
2019-04-28T10:53:15.223Z,10.73
2019-04-28T10:55:44.400Z,9.43
2019-04-28T10:58:13.607Z,9.63
2019-04-28T11:00:43.115Z,10.30
2019-04-28T11:03:12.320Z,8.97
2019-04-28T11:05:43.320Z,10.13
2019-04-28T11:08:30.326Z,9.67
2019-04-28T11:11:02.967Z,6.87
2019-04-28T11:13:32.168Z,6.93
2019-04-28T11:16:01.467Z,6.30
2019-04-28T11:18:30.657Z,5.00
2019-04-28T11:20:59.955Z,5.37
2019-04-28T11:23:29.237Z,6.23
2019-04-28T11:25:58.468Z,6.50
2019-04-28T11:28:27.687Z,6.47
2019-04-28T11:30:56.987Z,6.00
2019-04-28T11:33:43.865Z,9.40
2019-04-28T11:36:13.793Z,6.23
2019-04-28T11:38:42.987Z,4.10
2019-04-28T11:41:12.309Z,7.33
2019-04-28T11:43:41.496Z,8.20
2019-04-28T11:46:12.387Z,5.40
2019-04-28T11:48:41.596Z,5.63
2019-04-28T11:51:10.827Z,6.20
2019-04-28T11:53:40.027Z,3.53
2019-04-28T11:56:09.279Z,5.87
2019-04-28T11:58:38.465Z,4.73
2019-04-28T12:01:09.637Z,4.50
2019-04-28T12:03:38.830Z,6.87
2019-04-28T12:06:08.139Z,7.33
2019-04-28T12:08:37.312Z,6.93
2019-04-28T12:11:23.680Z,4.07
2019-04-28T12:14:24.249Z,6.47
2019-04-28T12:17:11.318Z,2.30
2019-04-28T12:19:47.179Z,5.13
2019-04-28T12:22:16.402Z,8.00
2019-04-28T12:24:45.592Z,5.80
2019-04-28T12:27:14.818Z,6.43
2019-04-28T12:29:44.036Z,4.93
2019-04-28T12:32:13.308Z,5.50
2019-04-28T12:34:42.538Z,4.87
2019-04-28T12:37:11.848Z,4.67
2019-04-28T12:39:41.056Z,4.90
2019-04-28T12:42:10.364Z,8.70
2019-04-28T12:44:39.673Z,4.53
2019-04-28T12:47:08.872Z,4.57
2019-04-28T12:49:45.010Z,5.77
2019-04-28T12:52:14.600Z,5.77
2019-04-28T12:54:44.747Z,4.17
2019-04-28T12:57:14.007Z,6.23
2019-04-28T12:59:48.108Z,4.50
2019-04-28T13:02:39.189Z,5.23
2019-04-28T13:05:12.489Z,6.93
2019-04-28T13:07:41.733Z,4.07
2019-04-28T13:10:10.929Z,4.13
2019-04-28T13:12:40.125Z,4.00
2019-04-28T13:15:09.335Z,3.10
2019-04-28T13:17:38.531Z,3.87
2019-04-28T13:20:07.868Z,3.30
2019-04-28T13:22:37.082Z,4.37
2019-04-28T13:25:06.552Z,3.70
2019-04-28T13:27:35.724Z,4.53
2019-04-28T13:30:05.719Z,3.07
2019-04-28T13:32:34.939Z,3.97
2019-04-28T13:35:04.682Z,4.10
2019-04-28T13:37:33.883Z,5.03
2019-04-28T13:40:07.770Z,5.63
2019-04-28T13:42:36.968Z,5.43
2019-04-28T13:45:09.685Z,2.30
2019-04-28T13:47:39.670Z,3.70
2019-04-28T13:50:24.007Z,3.00
2019-04-28T13:52:53.268Z,3.20
2019-04-28T13:55:40.504Z,3.83
2019-04-28T13:58:09.805Z,2.97
2019-04-28T14:00:51.157Z,3.77
2019-04-28T14:03:29.143Z,3.97
2019-04-28T14:06:02.322Z,5.67
2019-04-28T14:08:31.667Z,5.73
2019-04-28T14:11:00.893Z,3.63
2019-04-28T14:13:30.081Z,4.03
2019-04-28T14:15:59.408Z,4.57
2019-04-28T14:18:28.595Z,4.63
2019-04-28T14:20:57.774Z,1.73
2019-04-28T14:23:27.076Z,3.13
2019-04-28T14:25:56.278Z,4.03
2019-04-28T14:28:25.507Z,4.07
2019-04-28T14:30:54.751Z,2.87
2019-04-28T14:33:23.991Z,2.17
2019-04-28T14:35:53.203Z,2.60
2019-04-28T14:38:22.398Z,5.07
2019-04-28T14:40:51.610Z,3.80
2019-04-28T14:43:20.804Z,1.80
2019-04-28T14:45:50.048Z,2.73
2019-04-28T14:48:19.252Z,2.20
2019-04-28T14:50:48.550Z,3.03
2019-04-28T14:53:17.749Z,3.37
2019-04-28T14:55:47.008Z,2.87
2019-04-28T14:58:16.193Z,2.97
2019-04-28T15:00:49.852Z,1.87
2019-04-28T15:03:19.264Z,1.60
2019-04-28T15:06:00.763Z,4.03
2019-04-28T15:08:47.852Z,2.17
2019-04-28T15:11:23.167Z,2.57
2019-04-28T15:13:55.284Z,3.33
2019-04-28T15:16:23.237Z,4.53
2019-04-28T15:18:52.482Z,2.83
2019-04-28T15:21:21.678Z,2.83
2019-04-28T15:23:50.924Z,3.00
2019-04-28T15:26:20.142Z,2.90
2019-04-28T15:28:49.357Z,3.90
2019-04-28T15:31:18.563Z,2.73
2019-04-28T15:33:47.772Z,3.47
2019-04-28T15:36:16.959Z,3.93
2019-04-28T15:38:46.249Z,2.73
2019-04-28T15:41:21.787Z,2.17
2019-04-28T15:43:46.403Z,1.27
2019-04-28T15:46:15.687Z,3.97
2019-04-28T15:48:44.946Z,2.27
2019-04-28T15:51:14.240Z,2.90
2019-04-28T15:53:45.812Z,2.97
2019-04-28T15:56:42.924Z,2.77
2019-04-28T15:59:12.260Z,2.63
2019-04-28T16:01:41.696Z,4.27
2019-04-28T16:04:10.911Z,2.60
2019-04-28T16:06:40.132Z,2.73
2019-04-28T16:09:13.127Z,3.17
2019-04-28T16:11:43.168Z,3.10
2019-04-28T16:14:12.396Z,4.27
2019-04-28T16:16:41.821Z,2.77
2019-04-28T16:19:11.208Z,3.00
2019-04-28T16:21:40.570Z,1.60
2019-04-28T16:24:09.987Z,2.77
2019-04-28T16:26:39.220Z,2.50
2019-04-28T16:29:08.423Z,3.10
2019-04-28T16:31:37.700Z,2.10
2019-04-28T16:34:06.902Z,1.90
2019-04-28T16:36:36.119Z,1.67
2019-04-28T16:39:07.066Z,2.53
2019-04-28T16:41:39.436Z,3.10
2019-04-28T16:44:08.667Z,2.30
2019-04-28T16:46:37.875Z,2.83
2019-04-28T16:49:07.083Z,3.10
2019-04-28T16:51:36.280Z,4.87
2019-04-28T16:54:05.511Z,1.70
2019-04-28T16:56:50.596Z,4.83
2019-04-28T16:59:37.554Z,5.30
2019-04-28T17:02:11.256Z,2.50
2019-04-28T17:04:40.659Z,3.43
2019-04-28T17:07:10.603Z,3.43
2019-04-28T17:09:39.874Z,2.93
2019-04-28T17:12:09.107Z,4.50
2019-04-28T17:14:38.328Z,5.33
2019-04-28T17:17:07.540Z,1.90
2019-04-28T17:19:36.751Z,3.77
2019-04-28T17:22:05.960Z,3.53
2019-04-28T17:24:35.188Z,3.33
2019-04-28T17:27:04.480Z,2.13
2019-04-28T17:29:33.704Z,2.57
2019-04-28T17:32:02.914Z,2.70
2019-04-28T17:34:32.263Z,4.33
2019-04-28T17:37:01.467Z,2.40
2019-04-28T17:39:31.332Z,3.33
2019-04-28T17:42:00.564Z,3.67
2019-04-28T17:44:29.774Z,4.70
2019-04-28T17:46:59.085Z,3.13
2019-04-28T17:49:33.477Z,6.47
2019-04-28T17:52:02.763Z,3.93
2019-04-28T17:54:31.954Z,3.73
2019-04-28T17:57:01.191Z,4.63
2019-04-28T17:59:30.391Z,4.47
2019-04-28T18:02:17.355Z,4.27
2019-04-28T18:04:57.668Z,3.20
2019-04-28T18:07:30.476Z,2.57
2019-04-28T18:09:59.646Z,4.50
2019-04-28T18:12:28.958Z,3.67
2019-04-28T18:15:04.619Z,2.63
2019-04-28T18:18:04.956Z,4.33
2019-04-28T18:20:34.255Z,4.93
2019-04-28T18:23:03.528Z,3.70
2019-04-28T18:25:32.759Z,4.23
2019-04-28T18:28:01.969Z,6.23
2019-04-28T18:30:33.312Z,4.20
2019-04-28T18:33:20.124Z,3.80
2019-04-28T18:35:56.672Z,5.33
2019-04-28T18:38:35.553Z,6.73
2019-04-28T18:41:12.040Z,3.13
2019-04-28T18:44:01.317Z,4.30
2019-04-28T18:46:31.349Z,4.93
2019-04-28T18:49:00.540Z,4.20
2019-04-28T18:51:29.757Z,3.33
2019-04-28T18:53:59.136Z,7.73
2019-04-28T18:56:28.376Z,3.93
2019-04-28T18:58:57.780Z,3.07
2019-04-28T19:01:44.931Z,6.33
2019-04-28T19:04:14.268Z,5.97
2019-04-28T19:06:43.456Z,4.10
2019-04-28T19:09:28.969Z,5.03
2019-04-28T19:12:10.639Z,4.13
2019-04-28T19:14:43.873Z,4.30
2019-04-28T19:17:26.112Z,3.17
2019-04-28T19:19:55.345Z,3.07
2019-04-28T19:22:24.559Z,5.20
2019-04-28T19:24:53.769Z,3.30
2019-04-28T19:27:23.027Z,5.03
2019-04-28T19:29:52.262Z,4.90
2019-04-28T19:32:21.436Z,5.13
2019-04-28T19:34:50.650Z,3.83
2019-04-28T19:37:19.892Z,3.20
2019-04-28T19:39:49.144Z,2.90
2019-04-28T19:42:18.327Z,3.57
2019-04-28T19:44:47.564Z,3.70
2019-04-28T19:47:16.892Z,5.10
2019-04-28T19:49:46.140Z,5.57
2019-04-28T19:52:15.339Z,5.33
2019-04-28T19:55:02.359Z,3.53
2019-04-28T19:57:46.218Z,4.27
2019-04-28T20:00:21.405Z,3.60
2019-04-28T20:02:51.021Z,4.27
2019-04-28T20:05:20.215Z,6.90
2019-04-28T20:07:49.403Z,3.83
2019-04-28T20:10:19.496Z,2.80
2019-04-28T20:12:48.683Z,4.17
2019-04-28T20:15:18.050Z,6.07
2019-04-28T20:17:47.483Z,6.43
2019-04-28T20:20:16.763Z,4.63
2019-04-28T20:22:46.042Z,8.27
2019-04-28T20:25:15.249Z,6.13
2019-04-28T20:27:44.555Z,7.00
2019-04-28T20:30:13.917Z,4.27
2019-04-28T20:32:45.096Z,5.33
2019-04-28T20:35:17.081Z,4.90
2019-04-28T20:38:04.384Z,7.63
2019-04-28T20:40:44.859Z,5.70
2019-04-28T20:43:16.060Z,5.83
2019-04-28T20:45:45.367Z,5.50
2019-04-28T20:48:14.567Z,8.17
2019-04-28T20:50:43.796Z,5.40
2019-04-28T20:53:13.060Z,5.77
2019-04-28T20:55:42.279Z,5.07
2019-04-28T20:58:11.476Z,6.63
2019-04-28T21:00:40.683Z,5.07
2019-04-28T21:03:09.969Z,4.83
2019-04-28T21:05:39.185Z,4.73
2019-04-28T21:08:08.376Z,5.03
2019-04-28T21:10:38.558Z,7.17
2019-04-28T21:13:07.896Z,8.77
2019-04-28T21:15:37.116Z,6.70
2019-04-28T21:18:06.296Z,6.73
2019-04-28T21:20:35.512Z,5.87
2019-04-28T21:23:04.707Z,6.97
2019-04-28T21:25:33.887Z,6.00
2019-04-28T21:28:03.197Z,5.50
2019-04-28T21:30:32.371Z,6.67
2019-04-28T21:33:01.600Z,5.83
2019-04-28T21:35:30.780Z,5.77
2019-04-28T21:37:59.966Z,5.97
2019-04-28T21:40:29.532Z,7.40
2019-04-28T21:43:12.448Z,7.03
2019-04-28T21:45:51.541Z,6.67
2019-04-28T21:48:38.912Z,4.87
2019-04-28T21:51:11.436Z,6.17
2019-04-28T21:53:39.015Z,6.13
2019-04-28T21:56:08.233Z,6.33
2019-04-28T21:58:37.448Z,5.70
2019-04-28T22:01:07.617Z,4.60
2019-04-28T22:03:36.879Z,5.90
2019-04-28T22:06:06.093Z,6.77
2019-04-28T22:08:35.319Z,8.17
2019-04-28T22:11:04.524Z,4.50
2019-04-28T22:13:33.703Z,5.70
2019-04-28T22:16:02.980Z,5.23
2019-04-28T22:18:32.207Z,5.77
2019-04-28T22:21:01.404Z,6.03
2019-04-28T22:23:55.680Z,6.17
2019-04-28T22:26:47.375Z,5.10
2019-04-28T22:29:16.781Z,5.67
2019-04-28T22:31:46.047Z,5.30
2019-04-28T22:34:15.864Z,6.80
2019-04-28T22:36:46.119Z,5.40
2019-04-28T22:39:15.755Z,7.77
2019-04-28T22:41:45.063Z,6.13
2019-04-28T22:44:14.247Z,6.10
2019-04-28T22:46:43.487Z,7.53
2019-04-28T22:49:12.773Z,7.37
2019-04-28T22:51:41.981Z,7.57
2019-04-28T22:54:36.041Z,7.40
2019-04-28T22:57:27.512Z,6.53
2019-04-28T22:59:56.783Z,6.27
2019-04-28T23:02:26.409Z,7.97
2019-04-28T23:05:04.096Z,7.20
2019-04-28T23:07:33.312Z,8.27
2019-04-28T23:10:02.883Z,8.20
2019-04-28T23:12:32.067Z,9.30
2019-04-28T23:15:01.379Z,7.63
2019-04-28T23:17:30.560Z,6.77
2019-04-28T23:19:59.756Z,11.13
2019-04-28T23:22:46.268Z,8.00
2019-04-28T23:25:07.344Z,8.90
2019-04-28T23:27:36.625Z,8.63
2019-04-28T23:30:07.480Z,9.77
2019-04-28T23:32:36.668Z,8.67
2019-04-28T23:35:06.250Z,10.70
2019-04-28T23:37:35.455Z,9.13
2019-04-28T23:40:06.296Z,10.30
2019-04-28T23:42:43.776Z,10.10
2019-04-28T23:45:13.047Z,8.60
2019-04-28T23:47:42.262Z,13.47
2019-04-28T23:50:13.299Z,8.63
2019-04-28T23:52:55.030Z,12.13
2019-04-28T23:55:25.521Z,10.33
2019-04-28T23:57:54.768Z,11.93
